YPPF weather

Adelaide Parafield Airport
Adelaide, South Australia, Australia

Public forecast

Using degrees Celsius for public forecast. Weather courtesy of forecast.io.

METAR (pilot weather report)

Closest report is Adelaide International Airport, 10.4 nm (19.3 km) SSW. Retrieved 2018/11/17 02:30 UTC (0 seconds ago):

YPAD 170230Z 09009KT CAVOK 23/M05 Q1022 NOSIG

TAF (pilot weather forecast)

Forecast is more than 12 hours old.

Closest forecast is Adelaide International Airport, 10.4 nm (19.3 km) SSW. Retrieved 2018/11/16 00:00 UTC (1 day ago):

TAF YPAD 162307Z 1700/1806 12012KT CAVOK FM170300 15014KT CAVOK FM170900 12014KT CAVOK FM172000 05012KT CAVOK FM180400 23010KT CAVOK